createdAt,value
2019-04-01T00:02:07.826Z,30.40
2019-04-01T00:04:39.618Z,37.53
2019-04-01T00:07:11.476Z,32.70
2019-04-01T00:09:41.678Z,36.50
2019-04-01T00:12:11.918Z,38.83
2019-04-01T00:14:42.521Z,34.95
2019-04-01T00:17:12.835Z,39.33
2019-04-01T00:19:43.048Z,29.35
2019-04-01T00:22:14.899Z,38.73
2019-04-01T00:24:45.121Z,36.70
2019-04-01T00:27:15.357Z,39.33
2019-04-01T00:29:45.584Z,35.17
2019-04-01T00:32:15.792Z,42.35
2019-04-01T00:34:47.572Z,35.05
2019-04-01T00:37:17.782Z,39.70
2019-04-01T00:39:48.025Z,35.50
2019-04-01T00:42:25.606Z,36.08
2019-04-01T00:44:55.910Z,38.90
2019-04-01T00:47:26.107Z,40.03
2019-04-01T00:49:56.332Z,41.92
2019-04-01T00:52:26.551Z,42.78
2019-04-01T00:54:56.758Z,40.28
2019-04-01T00:57:27.062Z,41.53
2019-04-01T00:59:57.259Z,37.53
2019-04-01T01:02:27.576Z,38.55
2019-04-01T01:04:58.100Z,41.48
2019-04-01T01:07:28.901Z,43.30
2019-04-01T01:09:59.154Z,44.83
2019-04-01T01:12:29.391Z,45.80
2019-04-01T01:14:59.695Z,45.95
2019-04-01T01:17:30.038Z,45.95
2019-04-01T01:20:01.797Z,46.75
2019-04-01T01:22:32.021Z,43.63
2019-04-01T01:25:02.227Z,42.90
2019-04-01T01:27:32.448Z,42.75
2019-04-01T01:30:02.887Z,45.40
2019-04-01T01:32:33.094Z,46.88
2019-04-01T01:35:03.304Z,51.13
2019-04-01T01:37:33.535Z,46.00
2019-04-01T01:40:04.880Z,45.30
2019-04-01T01:42:35.109Z,45.85
2019-04-01T01:45:05.976Z,48.08
2019-04-01T01:47:37.793Z,42.33
2019-04-01T01:50:08.097Z,40.33
2019-04-01T01:52:38.320Z,38.10
2019-04-01T01:55:08.514Z,40.12
2019-04-01T01:57:38.948Z,38.98
2019-04-01T02:00:10.879Z,43.55
2019-04-01T02:02:41.178Z,43.23
2019-04-01T02:05:11.393Z,42.88
2019-04-01T02:07:43.213Z,41.15
2019-04-01T02:10:13.414Z,45.45
2019-04-01T02:12:43.639Z,43.87
2019-04-01T02:15:13.857Z,51.50
2019-04-01T02:17:44.082Z,49.90
2019-04-01T02:20:14.306Z,46.05
2019-04-01T02:22:44.918Z,47.73
2019-04-01T02:25:15.135Z,45.78
2019-04-01T02:27:45.334Z,48.63
2019-04-01T02:30:15.584Z,48.42
2019-04-01T02:32:47.427Z,50.40
2019-04-01T02:35:17.760Z,52.20
2019-04-01T02:37:49.828Z,51.40
2019-04-01T02:40:22.116Z,53.40
2019-04-01T02:42:52.271Z,55.88
2019-04-01T02:45:22.598Z,53.48
2019-04-01T02:47:54.458Z,58.63
2019-04-01T02:50:24.737Z,51.28
2019-04-01T02:52:55.221Z,56.92
2019-04-01T02:55:25.453Z,59.48
2019-04-01T02:57:55.876Z,57.13
2019-04-01T03:00:26.142Z,60.55
2019-04-01T03:02:56.425Z,65.70
2019-04-01T03:05:26.674Z,59.93
2019-04-01T03:07:57.030Z,56.48
2019-04-01T03:10:27.286Z,64.15
2019-04-01T03:12:57.484Z,56.88
2019-04-01T03:15:27.714Z,58.92
2019-04-01T03:17:58.141Z,60.58
2019-04-01T03:20:28.344Z,58.00
2019-04-01T03:22:58.558Z,59.65
2019-04-01T03:25:30.437Z,59.90
2019-04-01T03:28:00.908Z,66.12
2019-04-01T03:30:31.262Z,59.42
2019-04-01T03:33:03.139Z,66.33
2019-04-01T03:35:35.033Z,58.40
2019-04-01T03:38:05.314Z,57.70
2019-04-01T03:40:35.591Z,63.52
2019-04-01T03:43:05.820Z,66.80
2019-04-01T03:45:36.067Z,59.08
2019-04-01T03:48:06.391Z,59.50
2019-04-01T03:50:39.166Z,64.87
2019-04-01T03:53:09.429Z,56.95
2019-04-01T03:55:39.761Z,59.23
2019-04-01T03:58:10.037Z,65.25
2019-04-01T04:00:40.248Z,55.70
2019-04-01T04:03:10.617Z,58.33
2019-04-01T04:05:41.000Z,56.85
2019-04-01T04:08:11.274Z,61.63
2019-04-01T04:10:41.629Z,59.65
2019-04-01T04:13:11.967Z,57.43
2019-04-01T04:15:42.443Z,62.62
2019-04-01T04:18:15.121Z,63.00
2019-04-01T04:20:45.315Z,81.00
2019-04-01T04:23:15.544Z,56.48
2019-04-01T04:25:47.349Z,61.85
2019-04-01T04:28:18.002Z,58.50
2019-04-01T04:30:48.288Z,57.27
2019-04-01T04:33:18.585Z,56.05
2019-04-01T04:35:48.988Z,62.85
2019-04-01T04:38:21.572Z,61.05
2019-04-01T04:40:51.927Z,56.28
2019-04-01T04:43:22.148Z,53.10
2019-04-01T04:45:52.467Z,59.38
2019-04-01T04:48:22.757Z,61.15
2019-04-01T04:50:53.147Z,67.42
2019-04-01T04:53:23.390Z,61.48
2019-04-01T04:55:53.689Z,61.83
2019-04-01T04:58:23.988Z,54.93
2019-04-01T05:00:54.247Z,61.25
2019-04-01T05:03:24.656Z,59.30
2019-04-01T05:05:54.972Z,57.43
2019-04-01T05:08:25.248Z,53.45
2019-04-01T05:10:57.092Z,53.38
2019-04-01T05:13:27.420Z,50.73
2019-04-01T05:15:57.765Z,54.70
2019-04-01T05:18:28.903Z,52.90
2019-04-01T05:20:59.965Z,58.68
2019-04-01T05:23:30.187Z,50.48
2019-04-01T05:26:00.421Z,48.75
2019-04-01T05:28:30.652Z,48.38
2019-04-01T05:31:00.938Z,48.63
2019-04-01T05:33:31.210Z,49.60
2019-04-01T05:36:02.286Z,47.05
2019-04-01T05:38:32.784Z,41.60
2019-04-01T05:41:03.286Z,49.45
2019-04-01T05:43:33.575Z,39.90
2019-04-01T05:46:03.823Z,38.83
2019-04-01T05:48:34.138Z,44.83
2019-04-01T05:51:04.364Z,40.95
2019-04-01T05:53:34.636Z,40.12
2019-04-01T05:56:04.827Z,41.40
2019-04-01T05:58:35.070Z,41.08
2019-04-01T06:01:08.408Z,41.55
2019-04-01T06:03:38.638Z,34.73
2019-04-01T06:06:08.914Z,36.20
2019-04-01T06:08:39.327Z,40.05
2019-04-01T06:11:09.525Z,39.42
2019-04-01T06:13:39.741Z,34.18
2019-04-01T06:16:11.609Z,34.55
2019-04-01T06:18:41.809Z,31.25
2019-04-01T06:21:12.046Z,34.83
2019-04-01T06:23:42.254Z,33.30
2019-04-01T06:26:12.469Z,37.40
2019-04-01T06:28:42.792Z,31.87
2019-04-01T06:31:13.024Z,39.92
2019-04-01T06:33:43.221Z,31.80
2019-04-01T06:36:13.633Z,34.70
2019-04-01T06:38:45.504Z,30.82
2019-04-01T06:41:15.837Z,36.38
2019-04-01T06:43:46.047Z,32.45
2019-04-01T06:46:17.843Z,35.30
2019-04-01T06:48:48.132Z,39.73
2019-04-01T06:51:18.327Z,31.55
2019-04-01T06:53:48.647Z,30.62
2019-04-01T06:56:18.872Z,33.50
2019-04-01T06:58:49.160Z,32.33
2019-04-01T07:01:19.371Z,89.05
2019-04-01T07:03:49.595Z,31.80
2019-04-01T07:06:19.903Z,26.05
2019-04-01T07:08:50.162Z,41.68
2019-04-01T07:11:20.484Z,31.60
2019-04-01T07:13:52.357Z,30.70
2019-04-01T07:16:22.656Z,32.53
2019-04-01T07:18:52.850Z,159.50
2019-04-01T07:21:23.274Z,38.80
2019-04-01T07:23:53.492Z,33.98
2019-04-01T07:26:23.723Z,28.62
2019-04-01T07:28:54.081Z,35.52
2019-04-01T07:31:24.361Z,37.15
2019-04-01T07:33:54.755Z,27.82
2019-04-01T07:36:25.008Z,26.12
2019-04-01T07:38:55.188Z,75.62
2019-04-01T07:41:25.466Z,31.77
2019-04-01T07:43:55.745Z,42.67
2019-04-01T07:46:26.003Z,36.83
2019-04-01T07:48:56.395Z,29.57
2019-04-01T07:51:26.773Z,29.12
2019-04-01T07:53:56.975Z,30.97
2019-04-01T07:56:27.235Z,31.68
2019-04-01T07:58:57.478Z,35.55
2019-04-01T08:01:27.681Z,31.00
2019-04-01T08:03:58.268Z,35.92
2019-04-01T08:06:28.534Z,38.28
2019-04-01T08:08:58.788Z,32.65
2019-04-01T08:11:30.641Z,30.92
2019-04-01T08:14:00.970Z,34.53
2019-04-01T08:16:31.177Z,26.60
2019-04-01T08:19:01.407Z,26.95
2019-04-01T08:21:31.699Z,36.90
2019-04-01T08:24:01.900Z,28.12
2019-04-01T08:26:32.250Z,28.42
2019-04-01T08:29:04.122Z,99.13
2019-04-01T08:31:34.474Z,27.70
2019-04-01T08:34:04.740Z,29.18
2019-04-01T08:36:35.072Z,51.30
2019-04-01T08:39:08.408Z,146.07
2019-04-01T08:41:38.728Z,31.93
2019-04-01T08:44:08.985Z,28.95
2019-04-01T08:46:39.252Z,27.27
2019-04-01T08:49:09.446Z,26.27
2019-04-01T08:51:39.670Z,25.45
2019-04-01T08:54:11.484Z,28.40
2019-04-01T08:56:41.763Z,26.37
2019-04-01T08:59:12.207Z,42.90
2019-04-01T09:01:42.425Z,28.65
2019-04-01T09:04:12.735Z,69.53
2019-04-01T09:06:43.000Z,34.48
2019-04-01T09:09:13.329Z,27.40
2019-04-01T09:11:45.103Z,27.50
2019-04-01T09:14:15.337Z,26.42
2019-04-01T09:16:45.708Z,26.25
2019-04-01T09:19:15.947Z,37.17
2019-04-01T09:21:46.158Z,26.97
2019-04-01T09:24:16.451Z,27.90
2019-04-01T09:26:47.632Z,27.50
2019-04-01T09:29:17.843Z,25.97
2019-04-01T09:31:48.065Z,28.30
2019-04-01T09:34:19.860Z,27.37
2019-04-01T09:36:50.171Z,26.27
2019-04-01T09:39:20.499Z,31.73
2019-04-01T09:41:51.705Z,27.17
2019-04-01T09:44:30.452Z,36.45
2019-04-01T09:46:53.861Z,30.23
2019-04-01T09:49:24.082Z,143.80
2019-04-01T09:51:54.286Z,240.35
2019-04-01T09:54:26.263Z,28.95
2019-04-01T09:56:56.670Z,35.78
2019-04-01T09:59:27.254Z,32.60
2019-04-01T10:01:57.529Z,31.15
2019-04-01T10:04:27.741Z,34.53
2019-04-01T10:06:57.935Z,31.48
2019-04-01T10:09:28.170Z,39.90
2019-04-01T10:11:58.358Z,32.78
2019-04-01T10:14:28.869Z,31.37
2019-04-01T10:16:59.131Z,33.95
2019-04-01T10:19:29.345Z,32.20
2019-04-01T10:21:59.568Z,35.23
2019-04-01T10:24:29.792Z,41.37
2019-04-01T10:27:01.599Z,36.60
2019-04-01T10:29:31.943Z,55.85
2019-04-01T10:32:03.721Z,36.17
2019-04-01T10:34:34.379Z,32.00
2019-04-01T10:37:04.717Z,38.40
2019-04-01T10:39:34.958Z,34.92
2019-04-01T10:42:05.286Z,30.27
2019-04-01T10:44:35.501Z,33.98
2019-04-01T10:47:05.889Z,37.83
2019-04-01T10:49:37.330Z,34.23
2019-04-01T10:52:08.116Z,37.85
2019-04-01T10:54:38.692Z,35.75
2019-04-01T10:57:09.064Z,35.52
2019-04-01T10:59:39.284Z,31.60
2019-04-01T11:02:09.961Z,30.43
2019-04-01T11:04:40.451Z,44.50
2019-04-01T11:07:10.747Z,28.83
2019-04-01T11:09:41.112Z,72.60
2019-04-01T11:12:12.887Z,33.92
2019-04-01T11:14:44.799Z,41.33
2019-04-01T11:17:15.399Z,40.63
2019-04-01T11:19:46.006Z,30.75
2019-04-01T11:22:16.226Z,34.25
2019-04-01T11:24:46.720Z,29.70
2019-04-01T11:27:17.073Z,38.65
2019-04-01T11:29:47.278Z,40.10
2019-04-01T11:32:17.604Z,38.73
2019-04-01T11:34:47.902Z,36.05
2019-04-01T11:37:18.252Z,30.17
2019-04-01T11:39:49.443Z,25.25
2019-04-01T11:42:19.858Z,30.05
2019-04-01T11:44:50.196Z,29.05
2019-04-01T11:47:22.232Z,30.92
2019-04-01T11:49:52.537Z,28.55
2019-04-01T11:52:22.839Z,40.17
2019-04-01T11:54:53.231Z,45.12
2019-04-01T11:57:23.559Z,35.20
2019-04-01T11:59:53.801Z,40.20
2019-04-01T12:02:25.577Z,32.67
2019-04-01T12:04:55.972Z,40.92
2019-04-01T12:07:26.563Z,32.90
2019-04-01T12:09:57.605Z,35.30
2019-04-01T12:12:27.944Z,32.95
2019-04-01T12:14:58.133Z,29.67
2019-04-01T12:17:28.308Z,32.83
2019-04-01T12:20:00.283Z,39.42
2019-04-01T12:22:30.691Z,34.95
2019-04-01T12:25:00.896Z,31.95
2019-04-01T12:27:31.959Z,31.93
2019-04-01T12:30:02.240Z,34.33
2019-04-01T12:32:32.444Z,30.35
2019-04-01T12:35:02.679Z,41.98
2019-04-01T12:37:32.866Z,35.98
2019-04-01T12:40:03.573Z,33.15
2019-04-01T12:42:33.881Z,32.40
2019-04-01T12:45:07.792Z,61.50
2019-04-01T12:47:42.966Z,31.17
2019-04-01T12:50:11.506Z,31.42
2019-04-01T12:52:43.263Z,25.62
2019-04-01T12:55:13.493Z,23.50
2019-04-01T12:57:44.049Z,22.80
2019-04-01T13:00:15.973Z,22.05
2019-04-01T13:02:46.213Z,22.60
2019-04-01T13:05:16.480Z,25.50
2019-04-01T13:07:46.784Z,21.17
2019-04-01T13:10:16.972Z,23.73
2019-04-01T13:12:48.759Z,21.68
2019-04-01T13:15:18.975Z,24.02
2019-04-01T13:17:50.023Z,19.52
2019-04-01T13:20:20.356Z,28.73
2019-04-01T13:22:50.634Z,22.40
2019-04-01T13:25:20.846Z,31.93
2019-04-01T13:27:51.095Z,21.30
2019-04-01T13:30:24.270Z,22.50
2019-04-01T13:32:54.825Z,25.92
2019-04-01T13:35:25.076Z,19.20
2019-04-01T13:37:58.078Z,32.95
2019-04-01T13:40:28.366Z,25.00
2019-04-01T13:42:58.757Z,18.57
2019-04-01T13:45:31.609Z,64.10
2019-04-01T13:48:00.908Z,20.40
2019-04-01T13:50:31.755Z,21.93
2019-04-01T13:53:02.921Z,20.57
2019-04-01T13:55:34.689Z,16.70
2019-04-01T13:58:04.930Z,19.05
2019-04-01T14:00:35.134Z,22.75
2019-04-01T14:03:05.423Z,18.40
2019-04-01T14:05:35.681Z,18.75
2019-04-01T14:08:06.126Z,17.23
2019-04-01T14:10:36.451Z,17.98
2019-04-01T14:13:06.717Z,19.75
2019-04-01T14:15:36.928Z,18.12
2019-04-01T14:18:07.148Z,16.35
2019-04-01T14:20:37.407Z,15.68
2019-04-01T14:23:07.718Z,18.50
2019-04-01T14:25:38.052Z,19.95
2019-04-01T14:28:09.891Z,18.65
2019-04-01T14:30:40.450Z,22.52
2019-04-01T14:33:10.679Z,21.75
2019-04-01T14:35:40.941Z,21.05
2019-04-01T14:38:11.164Z,16.77
2019-04-01T14:40:43.022Z,16.00
2019-04-01T14:43:13.445Z,18.25
2019-04-01T14:45:43.696Z,18.15
2019-04-01T14:48:13.953Z,18.20
2019-04-01T14:50:44.154Z,16.40
2019-04-01T14:53:14.389Z,18.57
2019-04-01T14:55:46.297Z,19.60
2019-04-01T14:58:16.537Z,17.40
2019-04-01T15:00:46.750Z,17.67
2019-04-01T15:03:18.589Z,20.05
2019-04-01T15:05:49.156Z,18.65
2019-04-01T15:08:19.704Z,17.02
2019-04-01T15:10:50.010Z,15.68
2019-04-01T15:13:20.442Z,16.97
2019-04-01T15:15:50.640Z,16.55
2019-04-01T15:18:20.831Z,18.12
2019-04-01T15:20:51.071Z,20.05
2019-04-01T15:23:24.800Z,17.20
2019-04-01T15:25:54.580Z,18.77
2019-04-01T15:28:25.034Z,16.20
2019-04-01T15:30:55.666Z,17.02
2019-04-01T15:33:26.733Z,19.75
2019-04-01T15:35:56.956Z,15.85
2019-04-01T15:38:27.248Z,21.10
2019-04-01T15:40:58.337Z,18.82
2019-04-01T15:43:28.790Z,19.52
2019-04-01T15:45:59.063Z,43.75
2019-04-01T15:48:29.441Z,19.90
2019-04-01T15:51:01.204Z,18.30
2019-04-01T15:53:31.403Z,16.23
2019-04-01T15:56:01.643Z,17.10
2019-04-01T15:58:33.480Z,16.80
2019-04-01T16:01:04.205Z,21.30
2019-04-01T16:03:34.401Z,17.30
2019-04-01T16:06:07.456Z,18.52
2019-04-01T16:08:36.665Z,17.77
2019-04-01T16:11:06.870Z,15.80
2019-04-01T16:13:38.792Z,18.80
2019-04-01T16:16:09.013Z,14.93
2019-04-01T16:18:39.320Z,16.17
2019-04-01T16:21:09.571Z,14.40
2019-04-01T16:23:39.763Z,14.30
2019-04-01T16:26:10.078Z,18.92
2019-04-01T16:28:40.344Z,13.35
2019-04-01T16:31:12.179Z,14.20
2019-04-01T16:33:43.934Z,14.63
2019-04-01T16:36:14.168Z,13.13
2019-04-01T16:38:44.464Z,13.00
2019-04-01T16:41:14.891Z,14.45
2019-04-01T16:43:47.713Z,13.22
2019-04-01T16:46:17.906Z,16.20
2019-04-01T16:48:48.150Z,12.13
2019-04-01T16:51:18.686Z,12.98
2019-04-01T16:53:48.987Z,11.55
2019-04-01T16:56:19.170Z,17.57
2019-04-01T16:58:49.422Z,12.78
2019-04-01T17:01:19.700Z,14.20
2019-04-01T17:03:49.890Z,12.23
2019-04-01T17:06:20.146Z,13.53
2019-04-01T17:08:51.919Z,16.52
2019-04-01T17:11:23.686Z,11.70
2019-04-01T17:13:55.535Z,13.98
2019-04-01T17:16:25.989Z,12.25
2019-04-01T17:18:57.671Z,10.93
2019-04-01T17:21:28.188Z,11.63
2019-04-01T17:23:59.965Z,12.63
2019-04-01T17:26:30.211Z,13.68
2019-04-01T17:29:00.531Z,14.60
2019-04-01T17:31:30.751Z,13.32
2019-04-01T17:34:00.991Z,15.75
2019-04-01T17:36:31.194Z,11.50
2019-04-01T17:39:01.412Z,15.58
2019-04-01T17:41:33.294Z,14.55
2019-04-01T17:44:03.497Z,16.62
2019-04-01T17:46:33.684Z,12.28
2019-04-01T17:49:03.945Z,16.37
2019-04-01T17:51:34.201Z,10.38
2019-04-01T17:54:04.428Z,13.48
2019-04-01T17:56:34.677Z,13.93
2019-04-01T17:59:04.971Z,10.43
2019-04-01T18:01:35.375Z,16.48
2019-04-01T18:04:05.631Z,13.48
2019-04-01T18:06:35.862Z,17.62
2019-04-01T18:09:07.761Z,13.35
2019-04-01T18:11:37.956Z,23.50
2019-04-01T18:14:08.273Z,16.12
2019-04-01T18:16:38.471Z,17.60
2019-04-01T18:19:08.698Z,18.75
2019-04-01T18:21:38.991Z,9.88
2019-04-01T18:24:09.177Z,10.08
2019-04-01T18:26:39.382Z,14.43
2019-04-01T18:29:10.038Z,19.57
2019-04-01T18:31:40.659Z,15.72
2019-04-01T18:34:10.945Z,15.43
2019-04-01T18:36:41.301Z,16.67
2019-04-01T18:39:11.493Z,25.32
2019-04-01T18:41:41.747Z,14.98
2019-04-01T18:44:12.138Z,20.70
2019-04-01T18:46:42.391Z,12.70
2019-04-01T18:49:12.690Z,13.93
2019-04-01T18:51:43.042Z,13.25
2019-04-01T18:54:13.225Z,15.68
2019-04-01T18:56:43.468Z,15.60
2019-04-01T18:59:13.809Z,18.45
2019-04-01T19:01:44.216Z,14.07
2019-04-01T19:04:14.710Z,17.65
2019-04-01T19:06:49.659Z,19.15
2019-04-01T19:09:18.681Z,15.08
2019-04-01T19:11:48.870Z,18.00
2019-04-01T19:14:19.223Z,16.02
2019-04-01T19:16:49.448Z,16.25
2019-04-01T19:19:19.672Z,15.50
2019-04-01T19:21:50.004Z,14.38
2019-04-01T19:24:20.445Z,14.68
2019-04-01T19:26:50.723Z,16.75
2019-04-01T19:29:20.973Z,17.25
2019-04-01T19:31:51.430Z,12.75
2019-04-01T19:34:23.349Z,10.65
2019-04-01T19:36:53.529Z,14.13
2019-04-01T19:39:23.779Z,16.70
2019-04-01T19:41:54.008Z,13.95
2019-04-01T19:44:24.213Z,15.90
2019-04-01T19:46:54.503Z,16.37
2019-04-01T19:49:24.748Z,15.83
2019-04-01T19:51:55.057Z,14.33
2019-04-01T19:54:31.178Z,11.68
2019-04-01T19:56:57.286Z,18.07
2019-04-01T19:59:27.517Z,19.27
2019-04-01T20:01:58.347Z,11.85
2019-04-01T20:04:28.861Z,18.05
2019-04-01T20:06:59.236Z,15.50
2019-04-01T20:09:29.524Z,12.80
2019-04-01T20:12:01.462Z,12.85
2019-04-01T20:14:31.828Z,13.08
2019-04-01T20:17:02.382Z,13.05
2019-04-01T20:19:33.187Z,14.18
2019-04-01T20:22:04.679Z,14.65
2019-04-01T20:24:35.881Z,13.03
2019-04-01T20:27:06.086Z,13.90
2019-04-01T20:29:36.379Z,11.33
2019-04-01T20:32:16.782Z,14.45
2019-04-01T20:34:38.497Z,10.78
2019-04-01T20:37:11.204Z,16.67
2019-04-01T20:39:41.460Z,11.83
2019-04-01T20:42:11.772Z,11.90
2019-04-01T20:44:42.131Z,11.78
2019-04-01T20:47:12.337Z,14.40
2019-04-01T20:49:42.559Z,22.30
2019-04-01T20:52:12.889Z,13.68
2019-04-01T20:54:45.190Z,14.43
2019-04-01T20:57:17.714Z,22.48
2019-04-01T20:59:48.139Z,15.72
2019-04-01T21:02:18.635Z,13.98
2019-04-01T21:04:48.838Z,12.85
2019-04-01T21:07:19.074Z,14.90
2019-04-01T21:09:49.363Z,15.35
2019-04-01T21:12:20.162Z,17.50
2019-04-01T21:14:55.942Z,14.25
2019-04-01T21:17:25.302Z,13.88
2019-04-01T21:19:55.502Z,12.98
2019-04-01T21:22:25.732Z,13.48
2019-04-01T21:24:57.576Z,10.03
2019-04-01T21:27:27.795Z,13.78
2019-04-01T21:29:58.144Z,16.23
2019-04-01T21:32:28.344Z,17.27
2019-04-01T21:34:58.608Z,16.02
2019-04-01T21:37:28.845Z,14.10
2019-04-01T21:39:59.496Z,21.07
2019-04-01T21:42:30.021Z,15.83
2019-04-01T21:45:01.807Z,13.83
2019-04-01T21:47:32.006Z,12.65
2019-04-01T21:50:02.593Z,12.10
2019-04-01T21:52:33.171Z,16.85
2019-04-01T21:55:07.732Z,12.43
2019-04-01T21:57:36.905Z,14.38
2019-04-01T22:00:14.045Z,21.25
2019-04-01T22:02:44.564Z,29.23
2019-04-01T22:05:17.224Z,15.32
2019-04-01T22:07:47.463Z,13.20
2019-04-01T22:10:17.711Z,14.15
2019-04-01T22:12:47.957Z,16.60
2019-04-01T22:15:18.870Z,9.08
2019-04-01T22:17:49.364Z,12.95
2019-04-01T22:20:19.560Z,13.85
2019-04-01T22:22:49.797Z,11.28
2019-04-01T22:25:20.144Z,10.40
2019-04-01T22:27:50.375Z,14.87
2019-04-01T22:30:20.605Z,16.45
2019-04-01T22:32:50.799Z,10.40
2019-04-01T22:35:21.119Z,13.45
2019-04-01T22:37:51.332Z,14.05
2019-04-01T22:40:21.624Z,11.97
2019-04-01T22:42:52.265Z,13.28
2019-04-01T22:45:24.037Z,11.33
2019-04-01T22:47:54.242Z,11.83
2019-04-01T22:50:24.472Z,11.40
2019-04-01T22:52:54.869Z,12.53
2019-04-01T22:55:25.135Z,11.63
2019-04-01T22:57:55.358Z,17.52
2019-04-01T23:00:26.405Z,13.78
2019-04-01T23:02:56.792Z,20.88
2019-04-01T23:05:27.064Z,11.60
2019-04-01T23:07:57.315Z,13.22
2019-04-01T23:10:27.637Z,16.48
2019-04-01T23:12:57.905Z,20.08
2019-04-01T23:15:28.106Z,26.97
2019-04-01T23:17:58.394Z,25.15
2019-04-01T23:20:28.617Z,13.05
2019-04-01T23:22:58.880Z,22.90
2019-04-01T23:25:29.106Z,14.23
2019-04-01T23:28:00.881Z,15.65
2019-04-01T23:30:32.847Z,10.80
2019-04-01T23:33:03.034Z,13.13
2019-04-01T23:35:33.261Z,14.25
2019-04-01T23:38:03.471Z,12.98
2019-04-01T23:40:33.810Z,9.68
2019-04-01T23:43:04.068Z,9.90
2019-04-01T23:45:34.346Z,7.75
2019-04-01T23:48:05.419Z,9.93
2019-04-01T23:50:35.619Z,12.75
2019-04-01T23:53:07.413Z,14.15
2019-04-01T23:55:39.174Z,8.60
2019-04-01T23:58:09.382Z,9.85
